createdAt,value
2018-05-24T00:03:19.302Z,5.97
2018-05-24T00:09:14.300Z,6.9
2018-05-24T00:15:09.296Z,6.13
2018-05-24T00:21:04.293Z,6.06
2018-05-24T00:26:59.315Z,5.54
2018-05-24T00:32:54.293Z,6.91
2018-05-24T00:38:49.302Z,6.78
2018-05-24T00:44:44.274Z,7.27
2018-05-24T00:50:39.304Z,7.23
2018-05-24T00:56:34.318Z,6.69
2018-05-24T01:02:29.324Z,6.69
2018-05-24T01:08:24.334Z,6.8
2018-05-24T01:14:19.254Z,6.46
2018-05-24T01:20:14.276Z,6.31
2018-05-24T01:26:09.248Z,5.9
2018-05-24T01:32:04.286Z,7.39
2018-05-24T01:37:59.302Z,7.41
2018-05-24T01:43:54.286Z,7.99
2018-05-24T01:49:49.268Z,6.59
2018-05-24T01:55:44.276Z,6.42
2018-05-24T02:01:39.248Z,6.63
2018-05-24T02:07:34.225Z,6.91
2018-05-24T02:13:29.303Z,9.47
2018-05-24T02:19:24.231Z,9.75
2018-05-24T02:25:19.239Z,7.61
2018-05-24T02:31:14.301Z,7.27
2018-05-24T02:37:09.243Z,6.71
2018-05-24T02:43:04.212Z,6.48
2018-05-24T02:48:59.234Z,6.33
2018-05-24T02:54:54.232Z,8.02
2018-05-24T03:00:49.589Z,8
2018-05-24T03:06:44.281Z,8.12
2018-05-24T03:12:39.354Z,9.15
2018-05-24T03:18:34.207Z,9.26
2018-05-24T03:24:29.261Z,10.35
2018-05-24T03:30:24.209Z,8.88
2018-05-24T03:36:19.203Z,8.23
2018-05-24T03:42:14.219Z,8.44
2018-05-24T03:48:09.252Z,8.39
2018-05-24T03:54:04.272Z,7.79
2018-05-24T03:59:59.189Z,8.13
2018-05-24T04:05:54.223Z,8.91
2018-05-24T04:11:49.222Z,9.04
2018-05-24T04:17:44.202Z,9.18
2018-05-24T04:23:39.187Z,11.45
2018-05-24T04:29:34.270Z,10.3
2018-05-24T04:35:29.166Z,8.59
2018-05-24T04:41:24.262Z,8.89
2018-05-24T04:47:19.193Z,8.79
2018-05-24T04:53:14.189Z,8.9
2018-05-24T04:59:09.147Z,8.8
2018-05-24T05:05:04.222Z,8.82
2018-05-24T05:10:59.162Z,8.6
2018-05-24T05:16:54.178Z,8.46
2018-05-24T05:22:49.187Z,13.43
2018-05-24T05:28:44.167Z,17.83
2018-05-24T05:34:39.165Z,12.9
2018-05-24T05:40:34.149Z,12.75
2018-05-24T05:46:29.197Z,11.16
2018-05-24T05:52:24.136Z,11.17
2018-05-24T05:58:19.122Z,13.93
2018-05-24T06:04:14.137Z,13.03
2018-05-24T06:10:09.221Z,14.15
2018-05-24T06:16:04.157Z,12.39
2018-05-24T06:21:59.107Z,13.48
2018-05-24T06:27:54.142Z,13.73
2018-05-24T06:33:49.166Z,13.89
2018-05-24T06:39:44.126Z,14.43
2018-05-24T06:45:39.144Z,20.08
2018-05-24T06:51:34.189Z,14.2
2018-05-24T06:57:29.133Z,14.61
2018-05-24T07:03:24.151Z,16.8
2018-05-24T07:09:19.099Z,17.67
2018-05-24T07:15:14.143Z,18.13
2018-05-24T07:21:09.136Z,18.46
2018-05-24T07:27:04.216Z,18.16
2018-05-24T07:32:59.106Z,17.77
2018-05-24T07:38:54.086Z,18.8
2018-05-24T07:44:49.134Z,17.06
2018-05-24T07:50:44.095Z,20.26
2018-05-24T07:56:39.089Z,16.69
2018-05-24T08:02:34.068Z,21.31
2018-05-24T08:08:29.099Z,16.4
2018-05-24T08:14:24.089Z,16.71
2018-05-24T08:20:19.161Z,17.94
2018-05-24T08:26:14.068Z,17.72
2018-05-24T08:32:09.102Z,17.69
2018-05-24T08:38:04.138Z,13.4
2018-05-24T08:43:59.135Z,13.66
2018-05-24T08:49:54.051Z,13.47
2018-05-24T08:55:49.069Z,14.37
2018-05-24T09:01:44.054Z,15.04
2018-05-24T09:07:39.117Z,14.36
2018-05-24T09:13:34.067Z,15.06
2018-05-24T09:19:29.036Z,16.77
2018-05-24T09:25:24.085Z,17.49
2018-05-24T09:31:19.021Z,19.3
2018-05-24T09:37:14.037Z,19.83
2018-05-24T09:43:09.053Z,15.8
2018-05-24T09:49:04.059Z,13.7
2018-05-24T09:54:59.027Z,16.32
2018-05-24T10:00:54.025Z,21.43
2018-05-24T10:06:49.068Z,16.08
2018-05-24T10:12:44.060Z,22.88
2018-05-24T10:18:39.123Z,21.83
2018-05-24T10:24:34.004Z,20.5
2018-05-24T10:30:29.034Z,14.21
2018-05-24T10:36:24.035Z,15.43
2018-05-24T10:42:19.030Z,17.4
2018-05-24T10:48:14.116Z,18.22
2018-05-24T10:54:09.109Z,22.81
2018-05-24T11:00:04.540Z,19.27
2018-05-24T11:05:59.006Z,18.97
2018-05-24T11:11:54.024Z,14.65
2018-05-24T11:17:49.049Z,15.4
2018-05-24T11:23:44.066Z,13.81
2018-05-24T11:29:39.010Z,13.43
2018-05-24T11:35:34.030Z,21.23
2018-05-24T11:41:29.036Z,16.44
2018-05-24T11:47:24.015Z,14.66
2018-05-24T11:53:19.017Z,16.51
2018-05-24T11:59:13.999Z,14.29
2018-05-24T12:05:09.072Z,15.5
2018-05-24T12:11:03.991Z,16.81
2018-05-24T12:16:59.011Z,12.34
2018-05-24T12:22:54.017Z,13.71
2018-05-24T12:28:49.064Z,13.14
2018-05-24T12:34:44.048Z,14.93
2018-05-24T12:40:39.160Z,15.2
2018-05-24T12:46:33.984Z,18.7
2018-05-24T12:52:29.000Z,12.73
2018-05-24T12:58:23.981Z,13.97
2018-05-24T13:04:19.112Z,14.62
2018-05-24T13:10:13.992Z,17.22
2018-05-24T13:16:09.087Z,12.87
2018-05-24T13:22:03.955Z,15.14
2018-05-24T13:27:58.961Z,17.14
2018-05-24T13:33:53.955Z,16.38
2018-05-24T13:39:48.933Z,16.16
2018-05-24T13:45:43.978Z,15.16
2018-05-24T13:51:38.952Z,12.68
2018-05-24T13:57:33.942Z,15.62
2018-05-24T14:03:28.981Z,17.31
2018-05-24T14:09:23.971Z,17.45
2018-05-24T14:15:18.928Z,14.63
2018-05-24T14:21:13.948Z,14.27
2018-05-24T14:27:08.924Z,13
2018-05-24T14:33:03.951Z,9.77
2018-05-24T14:38:58.960Z,14.45
2018-05-24T14:44:54.016Z,11.25
2018-05-24T14:50:48.923Z,12.32
2018-05-24T14:56:43.956Z,10.3
2018-05-24T15:02:38.939Z,12.72
2018-05-24T15:08:33.983Z,10.9
2018-05-24T15:14:28.948Z,11.56
2018-05-24T15:20:23.954Z,14.23
2018-05-24T15:26:18.949Z,10.38
2018-05-24T15:32:13.943Z,12.56
2018-05-24T15:38:08.906Z,12.38
2018-05-24T15:44:03.911Z,11.93
2018-05-24T15:49:58.892Z,11.53
2018-05-24T15:55:53.907Z,11.94
2018-05-24T16:01:48.909Z,18.13
2018-05-24T16:07:43.907Z,12.86
2018-05-24T16:13:38.913Z,12.41
2018-05-24T16:19:33.928Z,13.47
2018-05-24T16:25:28.902Z,12.77
2018-05-24T16:31:23.923Z,12.8
2018-05-24T16:37:18.908Z,11.28
2018-05-24T16:43:13.884Z,11.57
2018-05-24T16:49:08.940Z,13.68
2018-05-24T16:55:03.888Z,13.29
2018-05-24T17:00:58.955Z,13.79
2018-05-24T17:06:53.855Z,12.11
2018-05-24T17:12:48.884Z,11.31
2018-05-24T17:18:43.947Z,10.5
2018-05-24T17:24:38.887Z,12.43
2018-05-24T17:30:33.841Z,12.64
2018-05-24T17:36:28.881Z,14.93
2018-05-24T17:42:23.864Z,11.4
2018-05-24T17:48:18.847Z,10.36
2018-05-24T17:54:13.879Z,12.49
2018-05-24T18:00:08.829Z,13.97
2018-05-24T18:06:03.888Z,12.62
2018-05-24T18:11:58.878Z,36.21
2018-05-24T18:17:53.829Z,19.97
2018-05-24T18:23:48.847Z,18.17
2018-05-24T18:29:43.866Z,37.02
2018-05-24T18:35:38.863Z,29.93
2018-05-24T18:41:33.894Z,23.67
2018-05-24T18:47:28.847Z,18.22
2018-05-24T18:53:23.933Z,43.97
2018-05-24T18:59:18.887Z,58.16
2018-05-24T19:05:13.918Z,23.71
2018-05-24T19:11:09.084Z,28.59
2018-05-24T19:17:03.934Z,18.71
2018-05-24T19:22:58.905Z,30.42
2018-05-24T19:28:53.859Z,21.4
2018-05-24T19:34:48.902Z,16.46
2018-05-24T19:40:43.787Z,16.96
2018-05-24T19:46:38.841Z,18.86
2018-05-24T19:52:33.802Z,18.98
2018-05-24T19:58:28.811Z,17.46
2018-05-24T20:04:23.823Z,17.53
2018-05-24T20:10:18.834Z,17.07
2018-05-24T20:16:13.857Z,15.79
2018-05-24T20:22:08.772Z,15.57
2018-05-24T20:28:03.789Z,17.75
2018-05-24T20:33:58.771Z,17.69
2018-05-24T20:39:53.778Z,16.88
2018-05-24T20:45:48.837Z,15.92
2018-05-24T20:51:43.785Z,16.04
2018-05-24T20:57:38.798Z,15.5
2018-05-24T21:03:33.803Z,15.31
2018-05-24T21:09:28.823Z,17.71
2018-05-24T21:15:23.764Z,18.97
2018-05-24T21:21:18.772Z,18.69
2018-05-24T21:27:13.782Z,18.77
2018-05-24T21:33:08.785Z,23.81
2018-05-24T21:39:03.763Z,17.96
2018-05-24T21:44:58.778Z,17.19
2018-05-24T21:50:53.779Z,17.12
2018-05-24T21:56:48.773Z,18.46
2018-05-24T22:02:43.747Z,20.14
2018-05-24T22:08:38.759Z,20.48
2018-05-24T22:14:33.729Z,19.24
2018-05-24T22:20:28.779Z,19.62
2018-05-24T22:26:23.767Z,17.54
2018-05-24T22:32:18.748Z,16.51
2018-05-24T22:38:13.753Z,16.96
2018-05-24T22:44:08.747Z,15.2
2018-05-24T22:50:03.728Z,16.93
2018-05-24T22:55:58.741Z,16.85
2018-05-24T23:01:53.755Z,17.13
2018-05-24T23:07:48.728Z,16.27
2018-05-24T23:13:43.739Z,17.81
2018-05-24T23:19:38.790Z,16.67
2018-05-24T23:25:33.694Z,18.15
2018-05-24T23:31:28.735Z,18.17
2018-05-24T23:37:23.816Z,20.87
2018-05-24T23:43:18.776Z,18.41
2018-05-24T23:49:13.765Z,19.04
2018-05-24T23:55:08.738Z,23.87
